createdAt,value
2019-05-25T00:00:46.069Z,15.90
2019-05-25T00:03:15.070Z,15.80
2019-05-25T00:05:44.051Z,15.70
2019-05-25T00:08:13.095Z,15.70
2019-05-25T00:10:42.092Z,15.60
2019-05-25T00:13:11.051Z,15.50
2019-05-25T00:15:40.020Z,15.50
2019-05-25T00:18:09.201Z,15.50
2019-05-25T00:20:38.182Z,15.40
2019-05-25T00:23:07.130Z,15.40
2019-05-25T00:25:36.224Z,15.30
2019-05-25T00:28:05.266Z,15.30
2019-05-25T00:30:34.390Z,15.20
2019-05-25T00:33:03.455Z,15.20
2019-05-25T00:35:32.705Z,15.10
2019-05-25T00:38:01.848Z,15.00
2019-05-25T00:40:30.864Z,14.90
2019-05-25T00:42:59.897Z,14.90
2019-05-25T00:45:29.026Z,14.80
2019-05-25T00:47:58.017Z,14.70
2019-05-25T00:50:27.058Z,14.70
2019-05-25T00:52:56.093Z,14.60
2019-05-25T00:55:25.166Z,14.50
2019-05-25T00:57:54.203Z,14.50
2019-05-25T01:00:23.609Z,14.40
2019-05-25T01:02:52.679Z,14.30
2019-05-25T01:05:21.706Z,14.30
2019-05-25T01:07:50.833Z,14.20
2019-05-25T01:10:19.956Z,14.10
2019-05-25T01:12:48.996Z,14.00
2019-05-25T01:15:18.407Z,14.00
2019-05-25T01:17:47.553Z,13.90
2019-05-25T01:20:17.124Z,13.80
2019-05-25T01:22:46.182Z,13.80
2019-05-25T01:25:15.709Z,13.70
2019-05-25T01:27:44.764Z,13.60
2019-05-25T01:30:15.256Z,13.50
2019-05-25T01:32:44.436Z,13.50
2019-05-25T01:35:13.613Z,13.50
2019-05-25T01:37:42.659Z,13.40
2019-05-25T01:40:12.533Z,13.40
2019-05-25T01:42:41.575Z,13.30
2019-05-25T01:45:11.167Z,13.30
2019-05-25T01:47:40.142Z,13.20
2019-05-25T01:50:09.354Z,13.20
2019-05-25T01:52:38.301Z,13.10
2019-05-25T01:55:07.829Z,13.00
2019-05-25T01:57:36.873Z,13.00
2019-05-25T02:00:08.377Z,12.90
2019-05-25T02:02:37.501Z,12.80
2019-05-25T02:05:07.038Z,12.70
2019-05-25T02:07:36.064Z,12.70
2019-05-25T02:10:05.909Z,12.60
2019-05-25T02:12:34.943Z,12.50
2019-05-25T02:15:04.818Z,12.50
2019-05-25T02:17:33.774Z,12.40
2019-05-25T02:20:02.812Z,12.40
2019-05-25T02:22:31.880Z,12.30
2019-05-25T02:25:16.261Z,12.20
2019-05-25T02:27:31.638Z,12.20
2019-05-25T02:30:00.750Z,12.10
2019-05-25T02:32:29.758Z,12.00
2019-05-25T02:34:58.915Z,12.00
2019-05-25T02:37:27.850Z,12.00
2019-05-25T02:39:56.804Z,11.90
2019-05-25T02:42:25.836Z,11.90
2019-05-25T02:44:54.780Z,11.80
2019-05-25T02:47:23.846Z,11.80
2019-05-25T02:49:52.952Z,11.80
2019-05-25T02:52:21.975Z,11.70
2019-05-25T02:54:51.005Z,11.70
2019-05-25T02:57:20.057Z,11.60
2019-05-25T02:59:49.037Z,11.60
2019-05-25T03:02:17.990Z,11.60
2019-05-25T03:04:47.080Z,11.50
2019-05-25T03:07:16.729Z,11.50
2019-05-25T03:09:47.024Z,11.50
2019-05-25T03:12:16.351Z,11.50
2019-05-25T03:14:45.381Z,11.40
2019-05-25T03:17:14.417Z,11.40
2019-05-25T03:19:43.365Z,11.40
2019-05-25T03:22:12.323Z,11.40
2019-05-25T03:24:41.278Z,11.40
2019-05-25T03:27:10.311Z,11.40
2019-05-25T03:29:39.303Z,11.40
2019-05-25T03:32:08.331Z,11.40
2019-05-25T03:34:37.358Z,11.50
2019-05-25T03:37:06.391Z,11.60
2019-05-25T03:39:35.473Z,11.80
2019-05-25T03:42:04.493Z,12.30
2019-05-25T03:44:33.533Z,12.70
2019-05-25T03:47:02.558Z,12.90
2019-05-25T03:49:31.568Z,13.00
2019-05-25T03:52:00.598Z,13.20
2019-05-25T03:54:29.559Z,13.30
2019-05-25T03:56:58.696Z,13.20
2019-05-25T03:59:27.826Z,13.10
2019-05-25T04:01:56.786Z,13.00
2019-05-25T04:04:25.820Z,12.90
2019-05-25T04:06:54.962Z,12.70
2019-05-25T04:09:23.921Z,12.50
2019-05-25T04:11:52.877Z,12.50
2019-05-25T04:14:21.836Z,12.80
2019-05-25T04:16:50.848Z,13.00
2019-05-25T04:19:19.809Z,13.00
2019-05-25T04:21:48.818Z,12.80
2019-05-25T04:24:18.071Z,12.70
2019-05-25T04:26:47.204Z,12.90
2019-05-25T04:29:17.254Z,13.60
2019-05-25T04:31:46.210Z,14.30
2019-05-25T04:34:15.295Z,14.50
2019-05-25T04:36:44.570Z,14.90
2019-05-25T04:39:13.525Z,15.40
2019-05-25T04:41:42.511Z,15.90
2019-05-25T04:44:11.472Z,15.50
2019-05-25T04:46:40.444Z,15.10
2019-05-25T04:49:09.479Z,14.30
2019-05-25T04:51:38.523Z,13.90
2019-05-25T04:54:07.588Z,13.60
2019-05-25T04:56:39.857Z,13.50
2019-05-25T04:59:07.494Z,13.70
2019-05-25T05:01:36.587Z,14.10
2019-05-25T05:04:05.613Z,14.50
2019-05-25T05:06:34.581Z,14.70
2019-05-25T05:09:05.217Z,14.90
2019-05-25T05:11:34.211Z,14.70
2019-05-25T05:14:03.265Z,14.80
2019-05-25T05:16:32.302Z,14.90
2019-05-25T05:19:01.339Z,15.20
2019-05-25T05:21:30.321Z,15.40
2019-05-25T05:23:59.260Z,15.40
2019-05-25T05:26:28.278Z,15.70
2019-05-25T05:28:57.314Z,15.60
2019-05-25T05:31:26.426Z,15.30
2019-05-25T05:33:55.482Z,15.00
2019-05-25T05:36:27.920Z,14.30
2019-05-25T05:38:57.633Z,13.80
2019-05-25T05:41:27.450Z,13.70
2019-05-25T05:43:57.749Z,13.70
2019-05-25T05:46:28.406Z,13.60
2019-05-25T05:48:59.446Z,13.60
2019-05-25T05:51:29.599Z,13.60
2019-05-25T05:53:59.601Z,13.50
2019-05-25T05:56:28.630Z,13.50
2019-05-25T05:58:57.758Z,13.50
2019-05-25T06:01:26.847Z,13.60
2019-05-25T06:03:55.861Z,13.40
2019-05-25T06:06:24.898Z,13.50
2019-05-25T06:08:53.861Z,13.40
2019-05-25T06:11:22.904Z,13.40
2019-05-25T06:13:51.943Z,13.30
2019-05-25T06:16:21.080Z,13.40
2019-05-25T06:18:50.152Z,13.60
2019-05-25T06:21:19.209Z,13.80
2019-05-25T06:23:48.356Z,14.10
2019-05-25T06:26:17.640Z,14.10
2019-05-25T06:28:46.732Z,14.00
2019-05-25T06:31:15.907Z,13.70
2019-05-25T06:33:44.861Z,13.60
2019-05-25T06:36:13.829Z,13.80
2019-05-25T06:38:51.826Z,14.00
2019-05-25T06:41:36.550Z,14.20
2019-05-25T06:44:10.258Z,14.30
2019-05-25T06:46:43.828Z,14.30
2019-05-25T06:49:21.091Z,14.70
2019-05-25T06:52:08.297Z,14.80
2019-05-25T06:54:38.328Z,14.80
2019-05-25T06:57:14.236Z,14.80
2019-05-25T06:59:52.301Z,14.70
2019-05-25T07:02:30.473Z,14.60
2019-05-25T07:05:08.255Z,14.50
2019-05-25T07:07:45.487Z,14.70
2019-05-25T07:10:20.736Z,14.80
2019-05-25T07:13:06.570Z,14.90
2019-05-25T07:15:44.773Z,14.90
2019-05-25T07:18:21.903Z,14.70
2019-05-25T07:21:05.400Z,14.80
2019-05-25T07:23:37.784Z,14.80
2019-05-25T07:26:15.578Z,14.80
2019-05-25T07:28:52.339Z,14.60
2019-05-25T07:31:29.828Z,14.80
2019-05-25T07:34:05.639Z,14.80
2019-05-25T07:36:47.627Z,15.00
2019-05-25T07:39:31.306Z,14.90
2019-05-25T07:42:46.823Z,14.90
2019-05-25T07:45:39.143Z,14.90
2019-05-25T07:48:31.576Z,14.70
2019-05-25T07:51:08.260Z,14.70
2019-05-25T07:53:43.349Z,14.80
2019-05-25T07:56:17.154Z,14.70
2019-05-25T07:58:53.105Z,14.70
2019-05-25T08:01:33.263Z,14.60
2019-05-25T08:04:28.873Z,14.50
2019-05-25T08:06:57.983Z,14.40
2019-05-25T08:09:27.014Z,14.40
2019-05-25T08:11:56.005Z,14.50
2019-05-25T08:14:24.964Z,14.70
2019-05-25T08:16:53.978Z,14.90
2019-05-25T08:19:23.105Z,15.10
2019-05-25T08:21:52.183Z,14.90
2019-05-25T08:24:21.645Z,14.80
2019-05-25T08:26:50.746Z,14.70
2019-05-25T08:29:19.714Z,14.60
2019-05-25T08:31:48.857Z,14.50
2019-05-25T08:34:17.973Z,14.50
2019-05-25T08:36:47.039Z,14.40
2019-05-25T08:39:16.122Z,14.50
2019-05-25T08:41:45.741Z,14.60
2019-05-25T08:44:14.984Z,14.50
2019-05-25T08:46:44.042Z,14.50
2019-05-25T08:49:13.205Z,14.40
2019-05-25T08:51:42.183Z,14.30
2019-05-25T08:54:11.244Z,14.10
2019-05-25T08:56:40.301Z,14.20
2019-05-25T08:59:09.369Z,14.30
2019-05-25T09:01:38.434Z,14.50
2019-05-25T09:04:07.500Z,14.60
2019-05-25T09:06:36.616Z,15.00
2019-05-25T09:09:07.584Z,15.10
2019-05-25T09:11:36.832Z,15.30
2019-05-25T09:14:06.137Z,15.80
2019-05-25T09:16:35.111Z,15.90
2019-05-25T09:19:04.232Z,16.00
2019-05-25T09:21:33.220Z,16.10
2019-05-25T09:24:02.249Z,16.10
2019-05-25T09:26:31.211Z,15.80
2019-05-25T09:29:04.398Z,15.80
2019-05-25T09:31:31.188Z,15.60
2019-05-25T09:34:00.294Z,15.60
2019-05-25T09:36:29.381Z,15.60
2019-05-25T09:38:58.404Z,15.80
2019-05-25T09:41:27.641Z,16.00
2019-05-25T09:43:56.611Z,16.30
2019-05-25T09:46:25.667Z,16.60
2019-05-25T09:48:54.790Z,17.00
2019-05-25T09:51:23.848Z,17.30
2019-05-25T09:53:52.974Z,17.30
2019-05-25T09:56:22.003Z,17.30
2019-05-25T09:58:52.916Z,16.90
2019-05-25T10:01:21.984Z,16.60
2019-05-25T10:03:51.187Z,16.50
2019-05-25T10:06:20.161Z,16.60
2019-05-25T10:08:49.329Z,16.60
2019-05-25T10:11:18.636Z,17.20
2019-05-25T10:13:47.895Z,17.70
2019-05-25T10:16:16.862Z,18.20
2019-05-25T10:18:45.981Z,18.40
2019-05-25T10:21:15.134Z,18.40
2019-05-25T10:23:44.209Z,18.00
2019-05-25T10:26:13.290Z,17.70
2019-05-25T10:28:42.358Z,17.70
2019-05-25T10:31:11.398Z,18.10
2019-05-25T10:33:40.502Z,18.50
2019-05-25T10:36:09.653Z,18.80
2019-05-25T10:38:40.334Z,18.80
2019-05-25T10:41:09.571Z,19.00
2019-05-25T10:43:38.609Z,19.40
2019-05-25T10:46:07.724Z,19.20
2019-05-25T10:48:36.843Z,18.90
2019-05-25T10:51:05.975Z,18.60
2019-05-25T10:53:34.972Z,18.40
2019-05-25T10:56:04.091Z,18.50
2019-05-25T10:58:33.124Z,19.00
2019-05-25T11:01:05.736Z,19.00
2019-05-25T11:03:35.194Z,18.60
2019-05-25T11:06:04.400Z,18.50
2019-05-25T11:08:33.535Z,18.60
2019-05-25T11:11:02.710Z,18.90
2019-05-25T11:13:31.864Z,18.80
2019-05-25T11:16:01.005Z,18.80
2019-05-25T11:18:30.126Z,18.80
2019-05-25T11:20:59.260Z,18.60
2019-05-25T11:23:28.398Z,18.40
2019-05-25T11:25:57.498Z,18.10
2019-05-25T11:28:26.553Z,18.00
2019-05-25T11:30:55.910Z,17.90
2019-05-25T11:33:25.160Z,17.90
2019-05-25T11:35:54.358Z,18.20
2019-05-25T11:38:23.345Z,18.40
2019-05-25T11:40:52.496Z,18.40
2019-05-25T11:43:21.673Z,18.40
2019-05-25T11:45:50.826Z,18.10
2019-05-25T11:48:19.931Z,18.30
2019-05-25T11:50:49.119Z,18.50
2019-05-25T11:53:18.287Z,18.70
2019-05-25T11:55:47.479Z,18.90
2019-05-25T11:58:16.679Z,18.70
2019-05-25T12:00:45.866Z,18.40
2019-05-25T12:03:15.047Z,18.30
2019-05-25T12:05:44.124Z,17.90
2019-05-25T12:08:13.137Z,18.10
2019-05-25T12:10:42.571Z,18.10
2019-05-25T12:13:11.714Z,18.20
2019-05-25T12:15:41.095Z,18.20
2019-05-25T12:18:10.215Z,18.10
2019-05-25T12:20:39.389Z,18.10
2019-05-25T12:23:08.947Z,18.20
2019-05-25T12:25:38.089Z,18.10
2019-05-25T12:28:07.364Z,17.70
2019-05-25T12:30:41.005Z,17.40
2019-05-25T12:33:07.247Z,17.20
2019-05-25T12:35:36.302Z,17.10
2019-05-25T12:38:05.548Z,17.40
2019-05-25T12:40:34.680Z,17.60
2019-05-25T12:43:03.938Z,17.90
2019-05-25T12:45:33.099Z,18.10
2019-05-25T12:48:02.207Z,18.10
2019-05-25T12:50:31.203Z,17.90
2019-05-25T12:53:00.278Z,17.90
2019-05-25T12:55:29.461Z,18.00
2019-05-25T12:57:58.622Z,18.00
2019-05-25T13:00:27.787Z,17.90
2019-05-25T13:02:56.916Z,17.70
2019-05-25T13:05:34.166Z,17.70
2019-05-25T13:07:56.832Z,17.80
2019-05-25T13:10:25.896Z,18.00
2019-05-25T13:12:54.909Z,18.20
2019-05-25T13:15:24.098Z,18.20
2019-05-25T13:17:53.274Z,18.00
2019-05-25T13:20:22.406Z,18.10
2019-05-25T13:22:51.494Z,18.10
2019-05-25T13:25:20.653Z,17.90
2019-05-25T13:27:49.777Z,17.60
2019-05-25T13:30:19.129Z,17.50
2019-05-25T13:32:48.181Z,17.50
2019-05-25T13:35:17.387Z,17.20
2019-05-25T13:37:46.488Z,17.20
2019-05-25T13:40:15.831Z,17.40
2019-05-25T13:42:44.811Z,17.50
2019-05-25T13:45:14.384Z,17.50
2019-05-25T13:47:43.492Z,17.70
2019-05-25T13:50:13.033Z,17.60
2019-05-25T13:52:43.211Z,17.50
2019-05-25T13:55:12.550Z,17.30
2019-05-25T13:57:41.637Z,17.20
2019-05-25T14:00:10.938Z,17.50
2019-05-25T14:02:40.081Z,18.00
2019-05-25T14:05:09.847Z,18.00
2019-05-25T14:07:39.004Z,17.60
2019-05-25T14:10:09.017Z,17.30
2019-05-25T14:12:38.131Z,17.40
2019-05-25T14:15:07.773Z,17.60
2019-05-25T14:17:38.840Z,17.80
2019-05-25T14:20:08.557Z,17.80
2019-05-25T14:22:37.783Z,17.50
2019-05-25T14:25:08.532Z,17.30
2019-05-25T14:27:37.673Z,17.40
2019-05-25T14:30:07.599Z,17.40
2019-05-25T14:32:36.728Z,17.40
2019-05-25T14:35:07.031Z,17.60
2019-05-25T14:37:36.202Z,17.60
2019-05-25T14:40:06.089Z,17.40
2019-05-25T14:42:35.137Z,17.30
2019-05-25T14:45:04.557Z,17.40
2019-05-25T14:47:33.633Z,17.60
2019-05-25T14:50:02.771Z,17.70
2019-05-25T14:52:31.903Z,17.60
2019-05-25T14:55:00.952Z,17.40
2019-05-25T14:57:30.093Z,17.40
2019-05-25T14:59:59.108Z,17.40
2019-05-25T15:02:28.295Z,17.30
2019-05-25T15:04:57.469Z,17.30
2019-05-25T15:07:26.542Z,17.40
2019-05-25T15:09:55.639Z,17.20
2019-05-25T15:12:24.708Z,17.00
2019-05-25T15:14:53.859Z,17.00
2019-05-25T15:17:22.937Z,17.30
2019-05-25T15:19:52.143Z,17.30
2019-05-25T15:22:21.230Z,17.20
2019-05-25T15:24:50.228Z,16.90
2019-05-25T15:27:19.418Z,16.70
2019-05-25T15:29:48.545Z,16.60
2019-05-25T15:32:20.324Z,16.50
2019-05-25T15:34:49.736Z,16.60
2019-05-25T15:37:18.758Z,16.80
2019-05-25T15:39:48.197Z,16.90
2019-05-25T15:42:17.445Z,17.10
2019-05-25T15:44:46.628Z,17.30
2019-05-25T15:47:15.647Z,17.50
2019-05-25T15:49:44.806Z,17.20
2019-05-25T15:52:13.945Z,17.00
2019-05-25T15:54:43.033Z,17.20
2019-05-25T15:57:12.508Z,17.20
2019-05-25T15:59:41.630Z,17.30
2019-05-25T16:02:11.021Z,17.20
2019-05-25T16:04:40.135Z,17.10
2019-05-25T16:07:09.330Z,17.30
2019-05-25T16:09:38.415Z,17.40
2019-05-25T16:12:07.531Z,17.50
2019-05-25T16:14:36.582Z,17.30
2019-05-25T16:17:05.722Z,17.20
2019-05-25T16:19:34.796Z,17.10
2019-05-25T16:22:03.933Z,17.10
2019-05-25T16:24:33.054Z,17.00
2019-05-25T16:27:02.701Z,17.00
2019-05-25T16:29:32.309Z,16.90
2019-05-25T16:32:02.019Z,16.90
2019-05-25T16:34:31.515Z,16.80
2019-05-25T16:37:00.568Z,16.70
2019-05-25T16:39:29.791Z,16.70
2019-05-25T16:42:00.012Z,16.40
2019-05-25T16:44:29.171Z,16.30
2019-05-25T16:46:58.244Z,16.30
2019-05-25T16:49:27.394Z,16.40
2019-05-25T16:51:56.594Z,16.40
2019-05-25T16:54:25.674Z,16.30
2019-05-25T16:56:54.815Z,16.30
2019-05-25T16:59:23.991Z,16.40
2019-05-25T17:01:53.109Z,16.30
2019-05-25T17:04:22.147Z,16.20
2019-05-25T17:06:51.222Z,16.20
2019-05-25T17:09:20.291Z,16.20
2019-05-25T17:11:49.271Z,16.20
2019-05-25T17:14:18.338Z,16.20
2019-05-25T17:16:47.439Z,16.20
2019-05-25T17:19:16.635Z,16.10
2019-05-25T17:21:45.671Z,15.90
2019-05-25T17:24:14.659Z,15.80
2019-05-25T17:26:43.810Z,15.70
2019-05-25T17:29:12.929Z,15.60
2019-05-25T17:31:41.982Z,15.70
2019-05-25T17:34:11.113Z,15.90
2019-05-25T17:36:40.230Z,15.90
2019-05-25T17:39:09.405Z,15.80
2019-05-25T17:41:38.443Z,15.80
2019-05-25T17:44:07.612Z,15.80
2019-05-25T17:46:36.649Z,15.70
2019-05-25T17:49:05.808Z,15.80
2019-05-25T17:51:34.851Z,15.80
2019-05-25T17:54:03.979Z,15.80
2019-05-25T17:56:33.097Z,15.80
2019-05-25T17:59:02.345Z,15.70
2019-05-25T18:01:31.297Z,15.70
2019-05-25T18:04:06.971Z,15.70
2019-05-25T18:06:30.985Z,15.70
2019-05-25T18:09:00.210Z,15.70
2019-05-25T18:11:29.273Z,15.60
2019-05-25T18:13:58.389Z,15.60
2019-05-25T18:16:27.854Z,15.70
2019-05-25T18:18:56.947Z,15.60
2019-05-25T18:21:26.067Z,15.60
2019-05-25T18:23:55.042Z,15.50
2019-05-25T18:26:24.176Z,15.50
2019-05-25T18:28:53.245Z,15.50
2019-05-25T18:31:22.324Z,15.50
2019-05-25T18:33:51.366Z,15.50
2019-05-25T18:36:20.543Z,15.50
2019-05-25T18:38:49.502Z,15.50
2019-05-25T18:41:18.620Z,15.40
2019-05-25T18:43:47.657Z,15.50
2019-05-25T18:46:16.721Z,15.50
2019-05-25T18:48:45.845Z,15.50
2019-05-25T18:51:15.003Z,15.50
2019-05-25T18:53:44.034Z,15.60
2019-05-25T18:56:12.999Z,15.50
2019-05-25T18:58:41.989Z,15.40
2019-05-25T19:01:11.140Z,15.50
2019-05-25T19:03:40.185Z,15.50
2019-05-25T19:06:09.405Z,15.70
2019-05-25T19:08:38.451Z,15.70
2019-05-25T19:11:07.644Z,15.40
2019-05-25T19:13:36.632Z,15.30
2019-05-25T19:16:05.795Z,15.30
2019-05-25T19:18:35.003Z,15.40
2019-05-25T19:21:04.132Z,15.40
2019-05-25T19:23:33.179Z,15.20
2019-05-25T19:26:02.186Z,14.90
2019-05-25T19:28:31.305Z,14.80
2019-05-25T19:31:00.438Z,14.60
2019-05-25T19:33:29.501Z,14.50
2019-05-25T19:35:58.467Z,14.50
2019-05-25T19:38:27.469Z,14.40
2019-05-25T19:40:56.721Z,14.30
2019-05-25T19:43:25.716Z,14.50
2019-05-25T19:45:54.774Z,14.40
2019-05-25T19:48:23.782Z,14.30
2019-05-25T19:50:56.044Z,14.40
2019-05-25T19:53:23.585Z,14.20
2019-05-25T19:55:52.611Z,14.10
2019-05-25T19:58:21.728Z,14.00
2019-05-25T20:00:50.950Z,14.00
2019-05-25T20:03:19.890Z,13.90
2019-05-25T20:05:48.999Z,14.00
2019-05-25T20:08:18.219Z,13.80
2019-05-25T20:10:47.295Z,13.70
2019-05-25T20:13:16.410Z,13.70
2019-05-25T20:15:45.409Z,13.60
2019-05-25T20:18:14.591Z,13.60
2019-05-25T20:20:43.716Z,13.50
2019-05-25T20:23:12.789Z,13.40
2019-05-25T20:25:41.865Z,13.40
2019-05-25T20:28:10.818Z,13.30
2019-05-25T20:30:39.785Z,13.30
2019-05-25T20:33:08.852Z,13.30
2019-05-25T20:35:37.916Z,13.50
2019-05-25T20:38:07.031Z,13.70
2019-05-25T20:40:36.107Z,13.70
2019-05-25T20:43:05.271Z,13.60
2019-05-25T20:45:34.317Z,13.60
2019-05-25T20:48:03.476Z,13.60
2019-05-25T20:50:32.551Z,13.70
2019-05-25T20:53:01.725Z,13.60
2019-05-25T20:55:30.878Z,13.50
2019-05-25T20:57:59.939Z,13.40
2019-05-25T21:00:29.063Z,13.60
2019-05-25T21:03:06.205Z,13.70
2019-05-25T21:05:28.671Z,13.90
2019-05-25T21:07:57.727Z,13.90
2019-05-25T21:10:26.892Z,14.00
2019-05-25T21:12:56.170Z,13.90
2019-05-25T21:15:25.286Z,13.80
2019-05-25T21:17:54.403Z,13.80
2019-05-25T21:20:23.419Z,13.70
2019-05-25T21:22:52.520Z,13.60
2019-05-25T21:25:21.591Z,13.60
2019-05-25T21:27:50.544Z,13.70
2019-05-25T21:30:19.665Z,13.60
2019-05-25T21:32:48.725Z,13.50
2019-05-25T21:35:17.746Z,13.40
2019-05-25T21:37:46.858Z,13.30
2019-05-25T21:40:17.080Z,13.20
2019-05-25T21:42:46.130Z,13.00
2019-05-25T21:45:15.466Z,13.10
2019-05-25T21:47:44.445Z,13.10
2019-05-25T21:50:14.041Z,13.10
2019-05-25T21:52:43.073Z,13.00
2019-05-25T21:55:12.589Z,12.90
2019-05-25T21:57:41.573Z,13.00
2019-05-25T22:00:13.254Z,13.00
2019-05-25T22:02:42.495Z,13.00
2019-05-25T22:05:11.926Z,13.00
2019-05-25T22:07:41.080Z,12.90
2019-05-25T22:10:11.257Z,12.90
2019-05-25T22:12:40.636Z,12.90
2019-05-25T22:15:10.798Z,12.80
2019-05-25T22:17:40.426Z,12.90
2019-05-25T22:20:10.160Z,12.90
2019-05-25T22:22:39.169Z,12.90
2019-05-25T22:25:08.553Z,12.90
2019-05-25T22:27:37.596Z,12.90
2019-05-25T22:30:06.950Z,13.00
2019-05-25T22:32:36.078Z,13.00
2019-05-25T22:35:05.436Z,12.90
2019-05-25T22:37:34.913Z,12.90
2019-05-25T22:40:04.112Z,12.90
2019-05-25T22:42:33.133Z,12.90
2019-05-25T22:45:02.214Z,12.90
2019-05-25T22:47:31.163Z,12.80
2019-05-25T22:50:00.205Z,12.90
2019-05-25T22:52:29.232Z,13.00
2019-05-25T22:54:58.218Z,13.10
2019-05-25T22:57:27.160Z,13.00
2019-05-25T22:59:56.137Z,12.90
2019-05-25T23:02:25.324Z,12.90
2019-05-25T23:04:54.460Z,12.70
2019-05-25T23:07:23.508Z,12.60
2019-05-25T23:09:52.614Z,12.70
2019-05-25T23:12:22.039Z,12.70
2019-05-25T23:14:51.110Z,12.70
2019-05-25T23:17:21.120Z,12.60
2019-05-25T23:19:50.197Z,12.50
2019-05-25T23:22:19.352Z,12.60
2019-05-25T23:24:48.543Z,12.50
2019-05-25T23:27:17.549Z,12.50
2019-05-25T23:29:46.637Z,12.40
2019-05-25T23:32:15.724Z,12.40
2019-05-25T23:34:44.818Z,12.50
2019-05-25T23:37:15.130Z,12.70
2019-05-25T23:39:44.706Z,12.80
2019-05-25T23:42:13.844Z,12.70
2019-05-25T23:44:42.968Z,12.80
2019-05-25T23:47:12.109Z,13.00
2019-05-25T23:49:41.182Z,13.10
2019-05-25T23:52:10.305Z,13.30
2019-05-25T23:54:39.382Z,13.30
2019-05-25T23:57:08.517Z,13.40
2019-05-25T23:59:37.586Z,13.30
